Flight Track Log - Related Links

Times and Time Zones

All times are in EDT time to prevent confusion due to time zone crossing. See the TSU216 flight status page for this flight to view local times or setup timezone preferences in your user account.

Time Position Orientation Groundspeed Altitude Reporting Facility
EDT Latitude Longitude Course Direction KTS MPH feet Rate Location/Type
Fri 05:14:38 AM 31.6700 -106.3764 48° Northeast 530 610 32,900  Level Albuquerque Center
Fri 05:15:38 AM 31.7653 -106.2472 49° Northeast 525 604 32,900  Level Albuquerque Center
Fri 05:16:38 AM 31.8567 -106.1189 50° Northeast 520 598 32,900  Level Albuquerque Center
Fri 05:17:39 AM 31.9403 -105.9633 58° Northeast 514 592 32,900  Level Albuquerque Center
Fri 05:18:39 AM 32.0078 -105.8314 59° Northeast 517 595 32,900  Level Albuquerque Center
Fri 05:19:00 AM 34.6003 -103.4413 48° Northeast  Level Estimated
Fri 05:19:39 AM 32.0831 -105.6881 58° Northeast 513 590 32,900  Level Albuquerque Center
Fri 05:20:39 AM 32.1622 -105.5469 56° Northeast 513 590 32,900 50 Level Albuquerque Center
Fri 05:21:40 AM 32.2306 -105.4006 61° Northeast 512 589 33,000  Climbing Albuquerque Center
Fri 05:22:40 AM 32.2864 -105.2442 67° East 513 590 32,900  Descending Albuquerque Center
Fri 05:23:40 AM 32.3417 -105.0919 67° East 510 587 33,000  Climbing Albuquerque Center
Fri 05:24:40 AM 32.4022 -104.9397 65° Northeast 510 587 32,900 -50 Descending Albuquerque Center
Fri 05:25:40 AM 32.4653 -104.7592 67° East 513 590 32,900 50 Level Albuquerque Center
Fri 05:26:41 AM 32.5242 -104.6119 65° Northeast 503 579 33,000 50 Climbing Albuquerque Center
Fri 05:27:41 AM 32.5836 -104.4606 65° Northeast 507 583 33,000  Level Albuquerque Center
Fri 05:28:41 AM 32.6431 -104.3089 65° Northeast 510 587 33,000  Level Albuquerque Center
Fri 05:29:41 AM 32.7322 -104.1769 51° Northeast 521 600 33,000  Level Albuquerque Center
Fri 05:30:42 AM 32.8275 -104.0544 47° Northeast 509 586 33,000  Level Albuquerque Center
Fri 05:31:42 AM 32.9242 -103.9308 47° Northeast 512 589 33,000  Level Albuquerque Center
Fri 05:32:42 AM 33.0206 -103.8064 47° Northeast 513 590 33,000  Level Albuquerque Center
Fri 05:33:42 AM 33.1175 -103.6833 47° Northeast 513 590 33,000  Level Albuquerque Center
Fri 05:34:42 AM 33.2108 -103.5572 48° Northeast 507 583 33,000  Level Albuquerque Center
Fri 05:35:43 AM 33.3083 -103.4319 47° Northeast 511 588 33,000  Level Albuquerque Center
Fri 05:36:43 AM 33.4075 -103.3053 47° Northeast 517 595 33,000  Level Albuquerque Center
Fri 05:37:43 AM 33.5008 -103.1753 49° Northeast 515 593 33,000  Level Albuquerque Center
Fri 05:38:19 AM 33.5592 -103.1006 47° Northeast 514 592 33,000  Level Albuquerque Center
Fri 05:39:19 AM 33.6564 -102.9750 47° Northeast 513 590 33,000  Level Albuquerque Center
Fri 05:40:20 AM 33.7500 -102.8461 49° Northeast 512 589 33,000  Level Albuquerque Center
Fri 05:41:20 AM 33.8458 -102.7206 47° Northeast 510 587 33,000  Level Albuquerque Center
Fri 05:42:20 AM 33.9414 -102.5958 47° Northeast 508 585 33,000  Level Albuquerque Center
Fri 05:43:20 AM 34.0342 -102.4664 49° Northeast 508 585 33,000  Level Albuquerque Center
Fri 05:44:20 AM 34.1300 -102.3383 48° Northeast 511 588 33,000  Level Albuquerque Center
Fri 05:45:21 AM 34.2186 -102.2178 48° Northeast 512 589 33,000  Level Albuquerque Center
Fri 05:46:21 AM 34.3122 -102.0869 49° Northeast 513 590 33,000  Level Albuquerque Center
Fri 05:47:21 AM 34.4081 -101.9581 48° Northeast 517 595 33,000  Level Albuquerque Center
Fri 05:48:21 AM 34.5011 -101.8275 49° Northeast 515 593 33,000  Level Albuquerque Center
Fri 05:49:21 AM 34.5944 -101.6986 49° Northeast 513 590 33,000  Level Albuquerque Center
Fri 05:50:22 AM 34.6906 -101.5700 48° Northeast 516 594 33,000  Level Albuquerque Center
Fri 05:51:22 AM 34.7817 -101.4397 50° Northeast 512 589 33,000  Level Albuquerque Center
Fri 05:52:22 AM 34.8950 -101.2864 48° Northeast 512 589 33,000  Level Albuquerque Center
Fri 05:53:22 AM 34.9869 -101.1561 49° Northeast 512 589 33,000  Level Albuquerque Center
Fri 05:54:22 AM 35.0789 -101.0264 49° Northeast 511 588 33,000  Level Albuquerque Center
Fri 05:55:23 AM 35.1728 -100.8983 48° Northeast 509 586 33,000  Level Albuquerque Center
Fri 05:56:23 AM 35.2633 -100.7686 49° Northeast 507 583 33,000  Level Albuquerque Center
Fri 05:57:23 AM 35.3444 -100.6522 49° Northeast 506 582 33,000  Level Albuquerque Center
Fri 05:58:23 AM 35.4367 -100.5225 49° Northeast 504 580 33,000  Level Albuquerque Center
Fri 05:59:24 AM 35.5267 -100.3925 50° Northeast 501 577 33,000  Level Albuquerque Center
Fri 06:01:45 AM 35.7461 -100.0786 49° Northeast 502 578 33,000  Level Kansas City Center
Fri 06:02:45 AM 35.8372 -99.9464 50° Northeast 502 578 33,000  Level Kansas City Center
Fri 06:03:46 AM 35.9281 -99.8139 50° Northeast 503 579 33,000  Level Kansas City Center
Fri 06:04:46 AM 36.0194 -99.6794 50° Northeast 505 581 33,000 -50 Level Kansas City Center
Fri 06:05:47 AM 36.1125 -99.5450 49° Northeast 508 585 32,900  Descending Kansas City Center
Fri 06:06:47 AM 36.2044 -99.4056 51° Northeast 511 588 33,000 50 Climbing Kansas City Center
Fri 06:07:47 AM 36.2989 -99.2669 50° Northeast 515 593 33,000  Level Kansas City Center
Fri 06:08:48 AM 36.3931 -99.1261 50° Northeast 519 597 33,000  Level Kansas City Center
Fri 06:09:48 AM 36.4856 -98.9847 51° Northeast 523 602 33,000  Level Kansas City Center
Fri 06:10:49 AM 36.5814 -98.8447 50° Northeast 526 605 33,000  Level Kansas City Center
Fri 06:11:49 AM 36.6747 -98.7033 51° Northeast 526 605 33,000  Level Kansas City Center
Fri 06:12:50 AM 36.7706 -98.5622 50° Northeast 529 609 33,000  Level Kansas City Center
Fri 06:13:50 AM 36.8644 -98.4175 51° Northeast 532 612 33,000  Level Kansas City Center
Fri 06:14:51 AM 36.9522 -98.2861 50° Northeast 533 613 33,000  Level Kansas City Center
Fri 06:15:51 AM 37.0464 -98.1436 50° Northeast 534 615 33,000  Level Kansas City Center
Fri 06:16:52 AM 37.1375 -97.9972 52° Northeast 535 616 33,000  Level Kansas City Center
Fri 06:17:52 AM 37.2294 -97.8528 51° Northeast 533 613 33,000  Level Kansas City Center
Fri 06:18:52 AM 37.3194 -97.7111 51° Northeast 526 605 33,000  Level Kansas City Center
Fri 06:19:53 AM 37.4106 -97.5694 51° Northeast 525 604 33,000  Level Kansas City Center
Fri 06:20:53 AM 37.5011 -97.4314 50° Northeast 517 595 33,000  Level Kansas City Center
Fri 06:21:54 AM 37.5900 -97.2944 51° Northeast 510 587 33,000  Level Kansas City Center
Fri 06:22:54 AM 37.6778 -97.1564 51° Northeast 508 585 33,000  Level Kansas City Center
Fri 06:23:55 AM 37.7844 -96.9939 50° Northeast 503 579 33,000  Level Kansas City Center
Fri 06:24:55 AM 37.8706 -96.8547 52° Northeast 503 579 33,000  Level Kansas City Center
Fri 06:25:55 AM 37.9564 -96.7181 51° Northeast 499 574 33,000  Level Kansas City Center
Fri 06:26:56 AM 38.0442 -96.5781 51° Northeast 506 582 33,000  Level Kansas City Center
Fri 06:27:56 AM 38.1319 -96.4342 52° Northeast 515 593 33,000  Level Kansas City Center
Fri 06:28:57 AM 38.2225 -96.2878 52° Northeast 518 596 33,000  Level Kansas City Center
Fri 06:29:57 AM 38.3125 -96.1503 50° Northeast 526 605 33,000  Level Kansas City Center
Fri 06:30:57 AM 38.3964 -96.0036 54° Northeast 535 616 33,000  Level Kansas City Center
Fri 06:31:58 AM 38.4956 -95.8289 54° Northeast 545 627 33,000  Level Kansas City Center
Fri 06:32:58 AM 38.5856 -95.6900 50° Northeast 535 616 33,000  Level Kansas City Center
Fri 06:33:58 AM 38.6731 -95.5436 53° Northeast 542 624 33,000  Level Kansas City Center
Fri 06:34:59 AM 38.7758 -95.3742 52° Northeast 542 624 33,000  Level Kansas City Center
Fri 06:35:59 AM 38.8656 -95.2314 51° Northeast 540 621 33,000  Level Kansas City Center
Fri 06:37:00 AM 38.9514 -95.0894 52° Northeast 532 612 33,000  Level Kansas City Center
Fri 06:38:00 AM 39.0492 -94.9264 52° Northeast 524 603 33,000  Level Kansas City Center
Fri 06:39:00 AM 39.1314 -94.7839 53° Northeast 522 601 33,000  Level Kansas City Center
Fri 06:40:01 AM 39.2158 -94.6428 52° Northeast 523 602 33,000  Level Kansas City Center
Fri 06:41:01 AM 39.3133 -94.4797 52° Northeast 517 595 33,000  Level Kansas City Center
Fri 06:42:01 AM 39.3939 -94.3358 54° Northeast 516 594 33,000  Level Kansas City Center
Fri 06:43:02 AM 39.4775 -94.1939 53° Northeast 519 597 33,000  Level Kansas City Center
Fri 06:44:02 AM 39.5753 -94.0286 52° Northeast 519 597 33,000  Level Kansas City Center
Fri 06:45:02 AM 39.6561 -93.8828 54° Northeast 521 600 33,000  Level Kansas City Center
Fri 06:46:03 AM 39.7419 -93.7350 53° Northeast 523 602 33,000  Level Kansas City Center
Fri 06:47:03 AM 39.8281 -93.5842 53° Northeast 524 603 33,000  Level Kansas City Center
Fri 06:48:03 AM 39.9144 -93.4322 53° Northeast 524 603 33,000  Level Kansas City Center
Fri 06:49:04 AM 40.0025 -93.2808 53° Northeast 526 605 33,000  Level Kansas City Center
Fri 06:50:04 AM 40.0833 -93.1256 56° Northeast 523 602 33,000  Level Kansas City Center
Fri 06:51:05 AM 40.1789 -92.9536 54° Northeast 524 603 33,000  Level Kansas City Center
Fri 06:52:05 AM 40.2619 -92.8031 54° Northeast 528 608 33,000  Level Kansas City Center
Fri 06:53:05 AM 40.3481 -92.6467 54° Northeast 529 609 33,000  Level Kansas City Center
Fri 06:54:06 AM 40.4367 -92.4878 54° Northeast 534 615 33,000  Level Kansas City Center
Fri 06:55:06 AM 40.5211 -92.3333 54° Northeast 533 613 33,000  Level Kansas City Center
Fri 06:56:06 AM 40.6081 -92.1775 54° Northeast 531 611 33,000  Level Kansas City Center
Fri 06:57:05 AM 40.6922 -92.0197 55° Northeast 531 611 33,000  Level Chicago Center
Fri 06:58:05 AM 40.7781 -91.8625 54° Northeast 530 610 33,000  Level Chicago Center
Fri 06:59:06 AM 40.8622 -91.7067 54° Northeast 528 608 33,000  Level Chicago Center
Fri 07:00:07 AM 40.9450 -91.5483 55° Northeast 528 608 33,000  Level Chicago Center
Fri 07:01:07 AM 41.0325 -91.3789 56° Northeast 525 604 33,000  Level Chicago Center
Fri 07:02:08 AM 41.1172 -91.2211 54° Northeast 523 602 33,000  Level Chicago Center
Fri 07:03:09 AM 41.2019 -91.0647 54° Northeast 519 597 33,000 -843 Level Chicago Center
Fri 07:04:09 AM 41.2836 -90.9078 55° Northeast 517 595 31,300 -2,182 Descending Chicago Center
Fri 07:05:10 AM 41.3639 -90.7567 55° Northeast 502 578 28,600 -2,607 Descending Chicago Center
Fri 07:06:11 AM 41.4400 -90.6103 55° Northeast 483 556 26,000 -2,628 Descending Chicago Center
Fri 07:07:11 AM 41.5117 -90.4639 57° Northeast 474 545 23,300 -2,607 Descending Chicago Center
Fri 07:08:13 AM 41.5856 -90.3228 55° Northeast 465 535 20,700 -2,607 Descending Chicago Center
Fri 07:09:13 AM 41.6569 -90.1900 54° Northeast 445 512 18,000 -2,628 Descending Chicago Center
Fri 07:10:14 AM 41.7239 -90.0589 56° Northeast 434 499 15,400 -2,579 Descending Chicago Center
Fri 07:11:14 AM 41.7864 -89.9292 57° Northeast 422 486 12,800 -2,033 Descending Chicago Center
Fri 07:12:15 AM 41.8433 -89.8114 57° Northeast 389 448 11,300 -1,131 Descending Chicago Center
Fri 07:13:16 AM 41.9042 -89.7156 50° Northeast 349 402 10,500 -934 Descending Chicago Center
Fri 07:14:17 AM 41.9617 -89.6372 45° Northeast 298 343 9,400 -1,279 Descending Chicago Center
Fri 07:15:18 AM 42.0153 -89.5622 46° Northeast 281 323 7,900 -1,525 Descending Chicago Center
Fri 07:16:19 AM 42.0711 -89.4669 52° Northeast 269 310 6,300 -1,574 Descending Chicago Center
Fri 07:17:20 AM 42.0967 -89.3875 67° East 261 300 4,700 -1,574 Descending Chicago Center
Fri 07:18:21 AM 42.1269 -89.3050 64° Northeast 239 275 3,100 -738 Descending Chicago Center
Fri 07:19:22 AM 42.1458 -89.2497 65° Northeast 201 231 3,200 -148 Climbing Chicago Center
Fri 07:20:23 AM 42.1594 -89.1933 72° East 194 223 2,800 -393 Descending Chicago Center
Fri 07:22:00 AM 42.1833 -89.0833 71° East  Level FlightAware Approximate

Login

Don't have an account? Register now (free) for customized features, flight alerts, and more!